sensor_id;sensor_type;location;lat;lon;timestamp;P1;durP1;ratioP1;P2;durP2;ratioP2
61505;SDS011;47366;51.916;4.574;2023-06-19T00:00:44;1.65;;;0.75;;
61505;SDS011;47366;51.916;4.574;2023-06-19T00:03:10;1.00;;;0.60;;
61505;SDS011;47366;51.916;4.574;2023-06-19T00:05:35;1.40;;;0.52;;
61505;SDS011;47366;51.916;4.574;2023-06-19T00:08:00;2.80;;;0.55;;
61505;SDS011;47366;51.916;4.574;2023-06-19T00:10:28;0.95;;;0.32;;
61505;SDS011;47366;51.916;4.574;2023-06-19T00:12:53;0.80;;;0.38;;
61505;SDS011;47366;51.916;4.574;2023-06-19T00:15:19;1.30;;;0.65;;
61505;SDS011;47366;51.916;4.574;2023-06-19T00:17:44;1.10;;;0.60;;
61505;SDS011;47366;51.916;4.574;2023-06-19T00:20:09;1.27;;;0.70;;
61505;SDS011;47366;51.916;4.574;2023-06-19T00:22:35;1.30;;;0.73;;
61505;SDS011;47366;51.916;4.574;2023-06-19T00:25:00;1.20;;;0.68;;
61505;SDS011;47366;51.916;4.574;2023-06-19T00:27:26;1.40;;;0.70;;
61505;SDS011;47366;51.916;4.574;2023-06-19T00:29:51;1.35;;;0.77;;
61505;SDS011;47366;51.916;4.574;2023-06-19T00:32:16;1.92;;;0.88;;
61505;SDS011;47366;51.916;4.574;2023-06-19T00:34:42;1.52;;;0.80;;
61505;SDS011;47366;51.916;4.574;2023-06-19T00:37:08;1.58;;;0.80;;
61505;SDS011;47366;51.916;4.574;2023-06-19T00:39:34;3.47;;;1.10;;
61505;SDS011;47366;51.916;4.574;2023-06-19T00:42:00;1.55;;;0.90;;
61505;SDS011;47366;51.916;4.574;2023-06-19T00:44:26;3.05;;;1.00;;
61505;SDS011;47366;51.916;4.574;2023-06-19T00:46:55;2.58;;;1.33;;
61505;SDS011;47366;51.916;4.574;2023-06-19T00:49:25;1.27;;;0.75;;
61505;SDS011;47366;51.916;4.574;2023-06-19T00:51:52;1.98;;;1.13;;
61505;SDS011;47366;51.916;4.574;2023-06-19T00:54:18;1.95;;;0.90;;
61505;SDS011;47366;51.916;4.574;2023-06-19T00:56:44;4.20;;;1.63;;
61505;SDS011;47366;51.916;4.574;2023-06-19T00:59:15;2.17;;;1.13;;
61505;SDS011;47366;51.916;4.574;2023-06-19T01:01:42;2.13;;;1.17;;
61505;SDS011;47366;51.916;4.574;2023-06-19T01:04:08;2.80;;;1.38;;
61505;SDS011;47366;51.916;4.574;2023-06-19T01:09:37;1.85;;;1.10;;
61505;SDS011;47366;51.916;4.574;2023-06-19T01:12:12;2.03;;;1.02;;
61505;SDS011;47366;51.916;4.574;2023-06-19T01:14:48;2.55;;;1.13;;
61505;SDS011;47366;51.916;4.574;2023-06-19T01:17:18;2.60;;;1.60;;
61505;SDS011;47366;51.916;4.574;2023-06-19T01:19:44;2.90;;;1.70;;
61505;SDS011;47366;51.916;4.574;2023-06-19T01:22:09;3.50;;;1.98;;
61505;SDS011;47366;51.916;4.574;2023-06-19T01:24:35;4.10;;;1.88;;
61505;SDS011;47366;51.916;4.574;2023-06-19T01:27:00;2.00;;;1.48;;
61505;SDS011;47366;51.916;4.574;2023-06-19T01:29:25;3.25;;;1.67;;
61505;SDS011;47366;51.916;4.574;2023-06-19T01:32:02;3.72;;;1.90;;
61505;SDS011;47366;51.916;4.574;2023-06-19T01:36:58;2.15;;;1.35;;
61505;SDS011;47366;51.916;4.574;2023-06-19T01:39:24;2.80;;;1.67;;
61505;SDS011;47366;51.916;4.574;2023-06-19T01:41:50;3.10;;;1.77;;
61505;SDS011;47366;51.916;4.574;2023-06-19T01:44:17;2.53;;;1.50;;
61505;SDS011;47366;51.916;4.574;2023-06-19T01:46:43;2.67;;;1.52;;
61505;SDS011;47366;51.916;4.574;2023-06-19T01:49:11;2.15;;;1.38;;
61505;SDS011;47366;51.916;4.574;2023-06-19T01:51:37;2.65;;;1.60;;
61505;SDS011;47366;51.916;4.574;2023-06-19T01:54:02;2.53;;;1.52;;
61505;SDS011;47366;51.916;4.574;2023-06-19T01:56:29;2.53;;;1.48;;
61505;SDS011;47366;51.916;4.574;2023-06-19T01:58:54;5.07;;;1.88;;
61505;SDS011;47366;51.916;4.574;2023-06-19T02:01:20;2.80;;;1.67;;
61505;SDS011;47366;51.916;4.574;2023-06-19T02:03:46;2.38;;;1.42;;
61505;SDS011;47366;51.916;4.574;2023-06-19T02:06:11;4.50;;;1.58;;
61505;SDS011;47366;51.916;4.574;2023-06-19T02:08:37;3.78;;;1.73;;
61505;SDS011;47366;51.916;4.574;2023-06-19T02:11:02;3.50;;;1.77;;
61505;SDS011;47366;51.916;4.574;2023-06-19T02:13:27;4.03;;;1.85;;
61505;SDS011;47366;51.916;4.574;2023-06-19T02:15:52;4.05;;;2.28;;
61505;SDS011;47366;51.916;4.574;2023-06-19T02:18:18;3.60;;;2.10;;
61505;SDS011;47366;51.916;4.574;2023-06-19T02:20:43;3.80;;;2.25;;
61505;SDS011;47366;51.916;4.574;2023-06-19T02:23:08;3.88;;;2.10;;
61505;SDS011;47366;51.916;4.574;2023-06-19T02:25:34;5.13;;;2.60;;
61505;SDS011;47366;51.916;4.574;2023-06-19T02:28:00;7.95;;;3.13;;
61505;SDS011;47366;51.916;4.574;2023-06-19T02:30:25;7.43;;;3.58;;
61505;SDS011;47366;51.916;4.574;2023-06-19T02:32:51;4.90;;;3.25;;
61505;SDS011;47366;51.916;4.574;2023-06-19T02:35:16;6.60;;;3.67;;
61505;SDS011;47366;51.916;4.574;2023-06-19T02:37:42;6.20;;;3.75;;
61505;SDS011;47366;51.916;4.574;2023-06-19T02:40:07;7.85;;;4.18;;
61505;SDS011;47366;51.916;4.574;2023-06-19T02:42:35;7.28;;;4.35;;
61505;SDS011;47366;51.916;4.574;2023-06-19T02:45:00;7.05;;;4.50;;
61505;SDS011;47366;51.916;4.574;2023-06-19T02:47:31;5.32;;;3.35;;
61505;SDS011;47366;51.916;4.574;2023-06-19T02:50:01;5.57;;;3.08;;
61505;SDS011;47366;51.916;4.574;2023-06-19T02:52:28;7.18;;;4.00;;
61505;SDS011;47366;51.916;4.574;2023-06-19T02:54:53;7.63;;;4.38;;
61505;SDS011;47366;51.916;4.574;2023-06-19T02:57:19;8.00;;;3.85;;
61505;SDS011;47366;51.916;4.574;2023-06-19T02:59:44;7.43;;;4.40;;
61505;SDS011;47366;51.916;4.574;2023-06-19T03:02:10;9.77;;;3.70;;
61505;SDS011;47366;51.916;4.574;2023-06-19T03:04:36;5.53;;;3.13;;
61505;SDS011;47366;51.916;4.574;2023-06-19T03:07:01;4.85;;;2.92;;
61505;SDS011;47366;51.916;4.574;2023-06-19T03:09:27;5.30;;;3.40;;
61505;SDS011;47366;51.916;4.574;2023-06-19T03:11:53;6.13;;;3.13;;
61505;SDS011;47366;51.916;4.574;2023-06-19T03:14:19;5.25;;;3.42;;
61505;SDS011;47366;51.916;4.574;2023-06-19T03:16:45;5.35;;;3.15;;
61505;SDS011;47366;51.916;4.574;2023-06-19T03:19:10;5.15;;;3.17;;
61505;SDS011;47366;51.916;4.574;2023-06-19T03:21:35;7.13;;;3.60;;
61505;SDS011;47366;51.916;4.574;2023-06-19T03:24:01;5.18;;;2.92;;
61505;SDS011;47366;51.916;4.574;2023-06-19T03:26:26;5.35;;;3.13;;
61505;SDS011;47366;51.916;4.574;2023-06-19T03:28:51;8.55;;;2.88;;
61505;SDS011;47366;51.916;4.574;2023-06-19T03:31:17;4.03;;;2.45;;
61505;SDS011;47366;51.916;4.574;2023-06-19T03:33:43;6.90;;;3.30;;
61505;SDS011;47366;51.916;4.574;2023-06-19T03:36:08;5.50;;;2.75;;
61505;SDS011;47366;51.916;4.574;2023-06-19T03:38:34;5.80;;;3.22;;
61505;SDS011;47366;51.916;4.574;2023-06-19T03:40:59;6.22;;;3.22;;
61505;SDS011;47366;51.916;4.574;2023-06-19T03:43:25;5.00;;;2.67;;
61505;SDS011;47366;51.916;4.574;2023-06-19T03:45:50;4.78;;;2.63;;
61505;SDS011;47366;51.916;4.574;2023-06-19T03:48:16;5.22;;;2.88;;
61505;SDS011;47366;51.916;4.574;2023-06-19T03:50:42;5.50;;;1.90;;
61505;SDS011;47366;51.916;4.574;2023-06-19T03:53:07;3.42;;;1.95;;
61505;SDS011;47366;51.916;4.574;2023-06-19T03:55:33;2.80;;;2.05;;
61505;SDS011;47366;51.916;4.574;2023-06-19T03:57:58;4.65;;;1.75;;
61505;SDS011;47366;51.916;4.574;2023-06-19T04:00:23;4.55;;;2.10;;
61505;SDS011;47366;51.916;4.574;2023-06-19T04:02:49;5.30;;;1.98;;
61505;SDS011;47366;51.916;4.574;2023-06-19T04:05:14;2.63;;;1.70;;
61505;SDS011;47366;51.916;4.574;2023-06-19T04:07:43;2.15;;;1.45;;
61505;SDS011;47366;51.916;4.574;2023-06-19T04:10:08;5.03;;;1.70;;
61505;SDS011;47366;51.916;4.574;2023-06-19T04:12:34;3.10;;;1.33;;
61505;SDS011;47366;51.916;4.574;2023-06-19T04:14:59;2.22;;;1.27;;
61505;SDS011;47366;51.916;4.574;2023-06-19T04:17:25;3.00;;;1.65;;
61505;SDS011;47366;51.916;4.574;2023-06-19T04:19:50;3.47;;;2.08;;
61505;SDS011;47366;51.916;4.574;2023-06-19T04:22:15;3.33;;;1.90;;
61505;SDS011;47366;51.916;4.574;2023-06-19T04:24:41;3.55;;;2.05;;
61505;SDS011;47366;51.916;4.574;2023-06-19T04:27:06;3.70;;;2.60;;
61505;SDS011;47366;51.916;4.574;2023-06-19T04:29:33;5.22;;;2.83;;
61505;SDS011;47366;51.916;4.574;2023-06-19T04:31:59;5.00;;;2.70;;
61505;SDS011;47366;51.916;4.574;2023-06-19T04:34:24;4.70;;;2.80;;
61505;SDS011;47366;51.916;4.574;2023-06-19T04:36:50;5.03;;;3.10;;
61505;SDS011;47366;51.916;4.574;2023-06-19T04:39:16;4.20;;;2.65;;
61505;SDS011;47366;51.916;4.574;2023-06-19T04:41:43;5.05;;;2.78;;
61505;SDS011;47366;51.916;4.574;2023-06-19T04:44:09;5.82;;;2.28;;
61505;SDS011;47366;51.916;4.574;2023-06-19T04:46:37;5.68;;;3.08;;
61505;SDS011;47366;51.916;4.574;2023-06-19T04:49:03;5.10;;;3.03;;
61505;SDS011;47366;51.916;4.574;2023-06-19T04:51:29;5.85;;;3.17;;
61505;SDS011;47366;51.916;4.574;2023-06-19T04:53:56;5.07;;;2.75;;
61505;SDS011;47366;51.916;4.574;2023-06-19T04:56:22;4.38;;;2.38;;
61505;SDS011;47366;51.916;4.574;2023-06-19T04:58:47;5.70;;;3.00;;
61505;SDS011;47366;51.916;4.574;2023-06-19T05:01:13;4.10;;;2.75;;
61505;SDS011;47366;51.916;4.574;2023-06-19T05:03:40;6.78;;;2.85;;
61505;SDS011;47366;51.916;4.574;2023-06-19T05:06:06;4.47;;;2.63;;
61505;SDS011;47366;51.916;4.574;2023-06-19T05:08:32;5.18;;;2.85;;
61505;SDS011;47366;51.916;4.574;2023-06-19T05:10:57;4.80;;;2.63;;
61505;SDS011;47366;51.916;4.574;2023-06-19T05:13:23;5.70;;;2.17;;
61505;SDS011;47366;51.916;4.574;2023-06-19T05:15:49;6.72;;;3.30;;
61505;SDS011;47366;51.916;4.574;2023-06-19T05:18:15;5.53;;;2.88;;
61505;SDS011;47366;51.916;4.574;2023-06-19T05:20:41;6.55;;;2.72;;
61505;SDS011;47366;51.916;4.574;2023-06-19T05:23:06;5.07;;;3.28;;
61505;SDS011;47366;51.916;4.574;2023-06-19T05:25:31;5.93;;;3.60;;
61505;SDS011;47366;51.916;4.574;2023-06-19T05:27:57;5.55;;;3.22;;
61505;SDS011;47366;51.916;4.574;2023-06-19T05:30:22;7.78;;;3.70;;
61505;SDS011;47366;51.916;4.574;2023-06-19T05:32:47;6.90;;;3.53;;
61505;SDS011;47366;51.916;4.574;2023-06-19T05:35:13;8.02;;;3.95;;
61505;SDS011;47366;51.916;4.574;2023-06-19T05:37:38;6.65;;;3.78;;
61505;SDS011;47366;51.916;4.574;2023-06-19T05:40:05;5.40;;;3.45;;
61505;SDS011;47366;51.916;4.574;2023-06-19T05:42:31;5.88;;;3.42;;
61505;SDS011;47366;51.916;4.574;2023-06-19T05:44:56;5.53;;;3.15;;
61505;SDS011;47366;51.916;4.574;2023-06-19T05:47:21;5.82;;;3.15;;
61505;SDS011;47366;51.916;4.574;2023-06-19T05:49:50;7.28;;;3.17;;
61505;SDS011;47366;51.916;4.574;2023-06-19T05:52:16;9.18;;;3.65;;
61505;SDS011;47366;51.916;4.574;2023-06-19T05:54:42;6.68;;;3.83;;
61505;SDS011;47366;51.916;4.574;2023-06-19T05:57:07;8.43;;;3.95;;
61505;SDS011;47366;51.916;4.574;2023-06-19T05:59:33;7.95;;;3.33;;
61505;SDS011;47366;51.916;4.574;2023-06-19T06:01:58;7.70;;;4.00;;
61505;SDS011;47366;51.916;4.574;2023-06-19T06:04:23;6.47;;;3.95;;
61505;SDS011;47366;51.916;4.574;2023-06-19T06:06:49;8.50;;;3.72;;
61505;SDS011;47366;51.916;4.574;2023-06-19T06:09:14;5.88;;;3.55;;
61505;SDS011;47366;51.916;4.574;2023-06-19T06:11:41;8.07;;;3.97;;
61505;SDS011;47366;51.916;4.574;2023-06-19T06:14:06;6.53;;;3.42;;
61505;SDS011;47366;51.916;4.574;2023-06-19T06:16:32;6.72;;;3.83;;
61505;SDS011;47366;51.916;4.574;2023-06-19T06:18:57;7.13;;;3.38;;
61505;SDS011;47366;51.916;4.574;2023-06-19T06:21:23;7.00;;;3.42;;
61505;SDS011;47366;51.916;4.574;2023-06-19T06:23:49;5.65;;;3.22;;
61505;SDS011;47366;51.916;4.574;2023-06-19T06:26:14;6.40;;;3.63;;
61505;SDS011;47366;51.916;4.574;2023-06-19T06:28:39;6.18;;;3.22;;
61505;SDS011;47366;51.916;4.574;2023-06-19T06:31:05;5.22;;;3.13;;
61505;SDS011;47366;51.916;4.574;2023-06-19T06:33:30;6.18;;;3.58;;
61505;SDS011;47366;51.916;4.574;2023-06-19T06:35:57;6.53;;;3.90;;
61505;SDS011;47366;51.916;4.574;2023-06-19T06:38:23;8.05;;;4.82;;
61505;SDS011;47366;51.916;4.574;2023-06-19T06:40:48;7.63;;;4.45;;
61505;SDS011;47366;51.916;4.574;2023-06-19T06:43:14;10.15;;;5.53;;
61505;SDS011;47366;51.916;4.574;2023-06-19T06:45:39;9.90;;;5.18;;
61505;SDS011;47366;51.916;4.574;2023-06-19T06:48:07;10.55;;;5.35;;
61505;SDS011;47366;51.916;4.574;2023-06-19T06:50:32;9.20;;;5.53;;
61505;SDS011;47366;51.916;4.574;2023-06-19T06:52:58;9.32;;;5.35;;
61505;SDS011;47366;51.916;4.574;2023-06-19T06:55:23;11.52;;;5.70;;
61505;SDS011;47366;51.916;4.574;2023-06-19T06:57:49;14.23;;;6.38;;
61505;SDS011;47366;51.916;4.574;2023-06-19T07:00:14;10.48;;;5.68;;
61505;SDS011;47366;51.916;4.574;2023-06-19T07:02:40;9.95;;;5.93;;
61505;SDS011;47366;51.916;4.574;2023-06-19T07:05:06;10.07;;;6.03;;
61505;SDS011;47366;51.916;4.574;2023-06-19T07:07:32;10.43;;;5.75;;
61505;SDS011;47366;51.916;4.574;2023-06-19T07:09:57;10.00;;;5.63;;
61505;SDS011;47366;51.916;4.574;2023-06-19T07:12:23;11.35;;;5.90;;
61505;SDS011;47366;51.916;4.574;2023-06-19T07:14:48;10.93;;;6.18;;
61505;SDS011;47366;51.916;4.574;2023-06-19T07:17:13;14.38;;;6.47;;
61505;SDS011;47366;51.916;4.574;2023-06-19T07:19:39;10.10;;;5.43;;
61505;SDS011;47366;51.916;4.574;2023-06-19T07:22:04;11.82;;;5.55;;
61505;SDS011;47366;51.916;4.574;2023-06-19T07:24:30;12.68;;;6.88;;
61505;SDS011;47366;51.916;4.574;2023-06-19T07:26:55;12.70;;;6.22;;
61505;SDS011;47366;51.916;4.574;2023-06-19T07:29:21;10.98;;;5.63;;
61505;SDS011;47366;51.916;4.574;2023-06-19T07:31:47;12.07;;;6.20;;
61505;SDS011;47366;51.916;4.574;2023-06-19T07:34:12;10.43;;;6.10;;
61505;SDS011;47366;51.916;4.574;2023-06-19T07:36:38;10.70;;;6.30;;
61505;SDS011;47366;51.916;4.574;2023-06-19T07:39:04;11.30;;;5.72;;
61505;SDS011;47366;51.916;4.574;2023-06-19T07:41:29;8.52;;;5.28;;
61505;SDS011;47366;51.916;4.574;2023-06-19T07:43:55;10.68;;;6.07;;
61505;SDS011;47366;51.916;4.574;2023-06-19T07:46:20;10.45;;;6.22;;
61505;SDS011;47366;51.916;4.574;2023-06-19T07:48:46;10.38;;;5.78;;
61505;SDS011;47366;51.916;4.574;2023-06-19T07:51:11;11.20;;;6.13;;
61505;SDS011;47366;51.916;4.574;2023-06-19T07:53:36;12.20;;;5.43;;
61505;SDS011;47366;51.916;4.574;2023-06-19T07:56:02;8.48;;;5.20;;
61505;SDS011;47366;51.916;4.574;2023-06-19T07:58:28;9.88;;;5.63;;
61505;SDS011;47366;51.916;4.574;2023-06-19T08:00:54;7.95;;;4.93;;
61505;SDS011;47366;51.916;4.574;2023-06-19T08:03:20;12.95;;;5.32;;
61505;SDS011;47366;51.916;4.574;2023-06-19T08:05:46;8.98;;;5.20;;
61505;SDS011;47366;51.916;4.574;2023-06-19T08:08:12;10.93;;;6.05;;
61505;SDS011;47366;51.916;4.574;2023-06-19T08:10:38;12.88;;;6.05;;
61505;SDS011;47366;51.916;4.574;2023-06-19T08:13:03;10.65;;;4.95;;
61505;SDS011;47366;51.916;4.574;2023-06-19T08:15:28;13.02;;;5.60;;
61505;SDS011;47366;51.916;4.574;2023-06-19T08:17:54;9.45;;;5.60;;
61505;SDS011;47366;51.916;4.574;2023-06-19T08:20:20;10.43;;;5.93;;
61505;SDS011;47366;51.916;4.574;2023-06-19T08:22:45;10.30;;;5.75;;
61505;SDS011;47366;51.916;4.574;2023-06-19T08:25:11;9.00;;;5.43;;
61505;SDS011;47366;51.916;4.574;2023-06-19T08:27:36;11.70;;;6.28;;
61505;SDS011;47366;51.916;4.574;2023-06-19T08:30:02;10.32;;;6.03;;
61505;SDS011;47366;51.916;4.574;2023-06-19T08:32:28;9.57;;;5.70;;
61505;SDS011;47366;51.916;4.574;2023-06-19T08:34:53;13.10;;;6.30;;
61505;SDS011;47366;51.916;4.574;2023-06-19T08:37:19;11.30;;;6.10;;
61505;SDS011;47366;51.916;4.574;2023-06-19T08:39:44;12.18;;;5.95;;
61505;SDS011;47366;51.916;4.574;2023-06-19T08:42:09;12.50;;;6.18;;
61505;SDS011;47366;51.916;4.574;2023-06-19T08:44:35;11.60;;;5.60;;
61505;SDS011;47366;51.916;4.574;2023-06-19T08:47:02;9.52;;;5.88;;
61505;SDS011;47366;51.916;4.574;2023-06-19T08:49:33;10.75;;;5.30;;
61505;SDS011;47366;51.916;4.574;2023-06-19T08:52:02;10.27;;;5.97;;
61505;SDS011;47366;51.916;4.574;2023-06-19T08:54:28;9.02;;;5.05;;
61505;SDS011;47366;51.916;4.574;2023-06-19T08:56:54;9.50;;;5.07;;
61505;SDS011;47366;51.916;4.574;2023-06-19T08:59:19;9.32;;;5.22;;
61505;SDS011;47366;51.916;4.574;2023-06-19T09:01:49;9.85;;;5.45;;
61505;SDS011;47366;51.916;4.574;2023-06-19T09:04:17;12.45;;;6.05;;
61505;SDS011;47366;51.916;4.574;2023-06-19T09:06:53;15.27;;;5.68;;
61505;SDS011;47366;51.916;4.574;2023-06-19T09:09:21;9.45;;;5.88;;
61505;SDS011;47366;51.916;4.574;2023-06-19T09:14:24;10.07;;;5.60;;
61505;SDS011;47366;51.916;4.574;2023-06-19T09:16:56;13.38;;;6.90;;
61505;SDS011;47366;51.916;4.574;2023-06-19T09:19:21;12.13;;;6.82;;
61505;SDS011;47366;51.916;4.574;2023-06-19T09:21:46;12.52;;;7.15;;
61505;SDS011;47366;51.916;4.574;2023-06-19T09:24:12;10.55;;;5.63;;
61505;SDS011;47366;51.916;4.574;2023-06-19T09:26:37;10.70;;;6.47;;
61505;SDS011;47366;51.916;4.574;2023-06-19T09:29:14;10.07;;;6.22;;
61505;SDS011;47366;51.916;4.574;2023-06-19T09:31:44;10.30;;;6.28;;
61505;SDS011;47366;51.916;4.574;2023-06-19T09:34:09;8.77;;;5.35;;
61505;SDS011;47366;51.916;4.574;2023-06-19T09:36:34;11.07;;;6.20;;
61505;SDS011;47366;51.916;4.574;2023-06-19T09:39:02;13.63;;;6.07;;
61505;SDS011;47366;51.916;4.574;2023-06-19T09:41:31;10.27;;;6.07;;
61505;SDS011;47366;51.916;4.574;2023-06-19T09:43:58;11.18;;;6.45;;
61505;SDS011;47366;51.916;4.574;2023-06-19T09:46:29;10.80;;;6.10;;
61505;SDS011;47366;51.916;4.574;2023-06-19T09:49:00;9.70;;;5.28;;
61505;SDS011;47366;51.916;4.574;2023-06-19T09:51:29;12.38;;;6.00;;
61505;SDS011;47366;51.916;4.574;2023-06-19T09:54:02;9.30;;;5.35;;
61505;SDS011;47366;51.916;4.574;2023-06-19T09:56:31;9.07;;;5.63;;
61505;SDS011;47366;51.916;4.574;2023-06-19T09:58:57;11.75;;;5.32;;
61505;SDS011;47366;51.916;4.574;2023-06-19T10:01:25;11.77;;;5.47;;
61505;SDS011;47366;51.916;4.574;2023-06-19T10:04:04;8.38;;;5.00;;
61505;SDS011;47366;51.916;4.574;2023-06-19T10:06:42;9.48;;;5.80;;
61505;SDS011;47366;51.916;4.574;2023-06-19T10:09:09;9.55;;;4.97;;
61505;SDS011;47366;51.916;4.574;2023-06-19T10:14:44;6.00;;;3.95;;
61505;SDS011;47366;51.916;4.574;2023-06-19T10:17:12;11.15;;;5.43;;
61505;SDS011;47366;51.916;4.574;2023-06-19T10:19:38;8.68;;;4.78;;
61505;SDS011;47366;51.916;4.574;2023-06-19T10:22:03;7.78;;;4.63;;
61505;SDS011;47366;51.916;4.574;2023-06-19T10:24:29;9.32;;;4.30;;
61505;SDS011;47366;51.916;4.574;2023-06-19T10:27:00;8.07;;;4.35;;
61505;SDS011;47366;51.916;4.574;2023-06-19T10:29:39;7.05;;;3.97;;
61505;SDS011;47366;51.916;4.574;2023-06-19T10:32:05;8.48;;;3.85;;
61505;SDS011;47366;51.916;4.574;2023-06-19T10:34:34;5.10;;;3.70;;
61505;SDS011;47366;51.916;4.574;2023-06-19T10:37:00;8.93;;;4.38;;
61505;SDS011;47366;51.916;4.574;2023-06-19T10:39:25;7.63;;;4.70;;
61505;SDS011;47366;51.916;4.574;2023-06-19T10:41:50;7.10;;;4.57;;
61505;SDS011;47366;51.916;4.574;2023-06-19T10:44:16;10.60;;;4.90;;
61505;SDS011;47366;51.916;4.574;2023-06-19T10:46:41;9.52;;;4.55;;
61505;SDS011;47366;51.916;4.574;2023-06-19T10:49:07;9.32;;;4.53;;
61505;SDS011;47366;51.916;4.574;2023-06-19T10:51:38;9.07;;;4.28;;
61505;SDS011;47366;51.916;4.574;2023-06-19T10:54:05;7.18;;;3.83;;
61505;SDS011;47366;51.916;4.574;2023-06-19T10:56:31;6.72;;;3.95;;
61505;SDS011;47366;51.916;4.574;2023-06-19T10:59:00;8.35;;;4.57;;
61505;SDS011;47366;51.916;4.574;2023-06-19T11:01:34;8.10;;;4.53;;
61505;SDS011;47366;51.916;4.574;2023-06-19T11:04:25;8.55;;;4.00;;
61505;SDS011;47366;51.916;4.574;2023-06-19T11:06:51;8.85;;;4.18;;
61505;SDS011;47366;51.916;4.574;2023-06-19T11:09:17;7.38;;;4.28;;
61505;SDS011;47366;51.916;4.574;2023-06-19T11:11:48;5.72;;;4.05;;
61505;SDS011;47366;51.916;4.574;2023-06-19T11:14:14;11.32;;;4.15;;
61505;SDS011;47366;51.916;4.574;2023-06-19T11:16:42;6.82;;;4.00;;
61505;SDS011;47366;51.916;4.574;2023-06-19T11:19:09;7.35;;;4.35;;
61505;SDS011;47366;51.916;4.574;2023-06-19T11:21:39;6.57;;;3.92;;
61505;SDS011;47366;51.916;4.574;2023-06-19T11:24:06;8.25;;;3.83;;
61505;SDS011;47366;51.916;4.574;2023-06-19T11:29:22;6.60;;;3.33;;
61505;SDS011;47366;51.916;4.574;2023-06-19T11:31:50;7.97;;;3.83;;
61505;SDS011;47366;51.916;4.574;2023-06-19T11:34:16;6.57;;;3.83;;
61505;SDS011;47366;51.916;4.574;2023-06-19T11:36:43;8.20;;;3.88;;
61505;SDS011;47366;51.916;4.574;2023-06-19T11:39:12;7.25;;;3.85;;
61505;SDS011;47366;51.916;4.574;2023-06-19T11:41:39;7.27;;;4.30;;
61505;SDS011;47366;51.916;4.574;2023-06-19T11:44:07;6.60;;;3.83;;
61505;SDS011;47366;51.916;4.574;2023-06-19T11:46:36;5.50;;;3.83;;
61505;SDS011;47366;51.916;4.574;2023-06-19T11:51:37;5.85;;;3.58;;
61505;SDS011;47366;51.916;4.574;2023-06-19T11:54:10;7.25;;;3.80;;
61505;SDS011;47366;51.916;4.574;2023-06-19T11:56:40;4.47;;;3.10;;
61505;SDS011;47366;51.916;4.574;2023-06-19T11:59:05;4.78;;;3.22;;
61505;SDS011;47366;51.916;4.574;2023-06-19T12:01:31;5.50;;;3.35;;
61505;SDS011;47366;51.916;4.574;2023-06-19T12:03:58;4.57;;;3.33;;
61505;SDS011;47366;51.916;4.574;2023-06-19T12:06:23;6.97;;;3.78;;
61505;SDS011;47366;51.916;4.574;2023-06-19T12:08:49;7.47;;;3.63;;
61505;SDS011;47366;51.916;4.574;2023-06-19T12:11:15;6.75;;;3.70;;
61505;SDS011;47366;51.916;4.574;2023-06-19T12:13:40;5.60;;;3.28;;
61505;SDS011;47366;51.916;4.574;2023-06-19T12:16:06;6.65;;;4.13;;
61505;SDS011;47366;51.916;4.574;2023-06-19T12:18:32;5.50;;;3.40;;
61505;SDS011;47366;51.916;4.574;2023-06-19T12:20:57;5.70;;;3.70;;
61505;SDS011;47366;51.916;4.574;2023-06-19T12:23:23;5.15;;;3.72;;
61505;SDS011;47366;51.916;4.574;2023-06-19T12:25:48;8.57;;;3.75;;
61505;SDS011;47366;51.916;4.574;2023-06-19T12:28:13;6.00;;;3.60;;
61505;SDS011;47366;51.916;4.574;2023-06-19T12:30:43;4.57;;;3.00;;
61505;SDS011;47366;51.916;4.574;2023-06-19T12:33:09;8.85;;;3.50;;
61505;SDS011;47366;51.916;4.574;2023-06-19T12:35:34;4.70;;;2.97;;
61505;SDS011;47366;51.916;4.574;2023-06-19T12:38:00;6.10;;;3.30;;
61505;SDS011;47366;51.916;4.574;2023-06-19T12:40:25;5.75;;;3.03;;
61505;SDS011;47366;51.916;4.574;2023-06-19T12:42:51;6.38;;;3.33;;
61505;SDS011;47366;51.916;4.574;2023-06-19T12:45:16;4.22;;;2.65;;
61505;SDS011;47366;51.916;4.574;2023-06-19T12:47:41;5.53;;;3.35;;
61505;SDS011;47366;51.916;4.574;2023-06-19T12:50:07;7.80;;;3.63;;
61505;SDS011;47366;51.916;4.574;2023-06-19T12:52:33;4.72;;;3.03;;
61505;SDS011;47366;51.916;4.574;2023-06-19T12:54:58;5.38;;;3.05;;
61505;SDS011;47366;51.916;4.574;2023-06-19T12:57:26;7.55;;;2.90;;
61505;SDS011;47366;51.916;4.574;2023-06-19T12:59:51;5.55;;;3.40;;
61505;SDS011;47366;51.916;4.574;2023-06-19T13:02:17;4.22;;;2.53;;
61505;SDS011;47366;51.916;4.574;2023-06-19T13:04:42;5.63;;;2.92;;
61505;SDS011;47366;51.916;4.574;2023-06-19T13:07:07;5.38;;;3.13;;
61505;SDS011;47366;51.916;4.574;2023-06-19T13:09:33;5.22;;;3.15;;
61505;SDS011;47366;51.916;4.574;2023-06-19T13:12:01;6.00;;;3.00;;
61505;SDS011;47366;51.916;4.574;2023-06-19T13:14:30;5.55;;;2.85;;
61505;SDS011;47366;51.916;4.574;2023-06-19T13:16:59;7.18;;;2.75;;
61505;SDS011;47366;51.916;4.574;2023-06-19T13:19:25;5.07;;;2.90;;
61505;SDS011;47366;51.916;4.574;2023-06-19T13:21:51;4.70;;;2.90;;
61505;SDS011;47366;51.916;4.574;2023-06-19T13:24:17;6.40;;;3.03;;
61505;SDS011;47366;51.916;4.574;2023-06-19T13:26:43;4.72;;;2.90;;
61505;SDS011;47366;51.916;4.574;2023-06-19T13:29:09;4.63;;;2.90;;
61505;SDS011;47366;51.916;4.574;2023-06-19T13:31:36;7.07;;;2.55;;
61505;SDS011;47366;51.916;4.574;2023-06-19T13:34:01;4.78;;;2.47;;
61505;SDS011;47366;51.916;4.574;2023-06-19T13:36:26;4.82;;;2.90;;
61505;SDS011;47366;51.916;4.574;2023-06-19T13:38:52;5.70;;;2.95;;
61505;SDS011;47366;51.916;4.574;2023-06-19T13:41:17;5.93;;;3.13;;
61505;SDS011;47366;51.916;4.574;2023-06-19T13:43:43;6.47;;;2.88;;
61505;SDS011;47366;51.916;4.574;2023-06-19T13:46:10;4.57;;;2.72;;
61505;SDS011;47366;51.916;4.574;2023-06-19T13:48:36;5.45;;;2.63;;
61505;SDS011;47366;51.916;4.574;2023-06-19T13:51:01;5.15;;;2.33;;
61505;SDS011;47366;51.916;4.574;2023-06-19T13:53:27;5.47;;;2.88;;
61505;SDS011;47366;51.916;4.574;2023-06-19T13:55:54;6.00;;;3.08;;
61505;SDS011;47366;51.916;4.574;2023-06-19T13:58:19;4.03;;;2.30;;
61505;SDS011;47366;51.916;4.574;2023-06-19T14:00:45;4.05;;;2.63;;
61505;SDS011;47366;51.916;4.574;2023-06-19T14:03:10;7.20;;;2.60;;
61505;SDS011;47366;51.916;4.574;2023-06-19T14:05:35;3.92;;;2.17;;
61505;SDS011;47366;51.916;4.574;2023-06-19T14:08:02;5.43;;;3.10;;
61505;SDS011;47366;51.916;4.574;2023-06-19T14:10:28;4.80;;;2.58;;
61505;SDS011;47366;51.916;4.574;2023-06-19T14:12:54;4.35;;;2.70;;
61505;SDS011;47366;51.916;4.574;2023-06-19T14:15:19;7.00;;;2.85;;
61505;SDS011;47366;51.916;4.574;2023-06-19T14:17:45;5.22;;;3.00;;
61505;SDS011;47366;51.916;4.574;2023-06-19T14:20:10;4.80;;;2.63;;
61505;SDS011;47366;51.916;4.574;2023-06-19T14:22:36;6.47;;;2.85;;
61505;SDS011;47366;51.916;4.574;2023-06-19T14:25:02;4.88;;;2.78;;
61505;SDS011;47366;51.916;4.574;2023-06-19T14:27:30;4.38;;;2.63;;
61505;SDS011;47366;51.916;4.574;2023-06-19T14:29:56;5.53;;;2.45;;
61505;SDS011;47366;51.916;4.574;2023-06-19T14:32:21;6.03;;;2.25;;
61505;SDS011;47366;51.916;4.574;2023-06-19T14:34:48;6.43;;;2.47;;
61505;SDS011;47366;51.916;4.574;2023-06-19T14:37:14;5.75;;;2.63;;
61505;SDS011;47366;51.916;4.574;2023-06-19T14:39:39;4.03;;;2.30;;
61505;SDS011;47366;51.916;4.574;2023-06-19T14:42:05;5.78;;;2.45;;
61505;SDS011;47366;51.916;4.574;2023-06-19T14:44:30;5.32;;;2.70;;
61505;SDS011;47366;51.916;4.574;2023-06-19T14:46:57;4.03;;;2.45;;
61505;SDS011;47366;51.916;4.574;2023-06-19T14:49:23;4.47;;;2.10;;
61505;SDS011;47366;51.916;4.574;2023-06-19T14:51:48;5.38;;;2.60;;
61505;SDS011;47366;51.916;4.574;2023-06-19T14:54:13;3.50;;;2.05;;
61505;SDS011;47366;51.916;4.574;2023-06-19T14:56:40;4.95;;;2.35;;